Guanacache, Argentina
Current Conditions -  °F | °C
As of 4:00 PM on Sunday 21 Dec 2014 (Local Time) from SAME Reporting Station
Scattered Clouds Scattered Clouds  
Wind Chill: 66°   Ceiling: Unl
Heat Index: 66°   Visibility: 6mi
Dew Point: 30°   Wind: 5mph
Humidity: 26%   Direction: 50°NE
Pressure: 29.94"   Gusts: NA
Location:  32°S, 68.61°W
Report Text: SAME 211900Z 05004KT 9999 SCT045 SCT10019/M01 Q1014
Loading
Personal Weather Stations






























Interactive Weather Map New forecast layout! Learn more

10-Day Weather Forecast

Advertisements
Track Severe Weather on mobile